DXXX/LFW METAR and TAF weather

Enter ICAO airport designator
Station Type Date Time Source
DXXX METAR 2018/06/25 02:00 UTC NOAA

DXXX 250200Z 24003KT 9999 FEW009 23/22 Q1012 NOSIG


Station Type Date Time Source
DXXX Decoded METAR 2018/06/25 02:00 UTC NOAA

Lome, Togo (DXXX) 06-10N 001-15E 25M
Jun 24, 2018 - 10:00 PM EDT / 2018.06.25 0200 UTC
Wind: from the WSW (240 degrees) at 3 MPH (3 KT):0
Visibility: greater than 7 mile(s):0
Sky conditions: mostly clear
Temperature: 73 F (23 C)
Dew Point: 71 F (22 C)
Relative Humidity: 94%
Pressure (altimeter): 29.88 in. Hg (1012 hPa)
ob: DXXX 250200Z 24003KT 9999 FEW009 23/22 Q1012 NOSIG
cycle: 2

Station Type Date Time Source
DXXX TAF 2018/06/24 18:04 UTC NOAA

TAF DXXX 241700Z 2418/2524 20010KT 9999 FEW012
BECMG 2423/2501 26005KT PROB30
TEMPO 2504/2509 BKN010 FEW020CB
BECMG 2509/2511 20010KT


Example: see airport list